sensor_id;sensor_type;location;lat;lon;timestamp;P1;durP1;ratioP1;P2;durP2;ratioP2
13991;SDS011;7070;53.586;9.692;2022-10-24T00:00:27;0.40;;;0.40;;
13991;SDS011;7070;53.586;9.692;2022-10-24T00:02:54;0.40;;;0.40;;
13991;SDS011;7070;53.586;9.692;2022-10-24T00:05:21;0.50;;;0.50;;
13991;SDS011;7070;53.586;9.692;2022-10-24T00:07:51;0.40;;;0.40;;
13991;SDS011;7070;53.586;9.692;2022-10-24T00:10:18;0.47;;;0.47;;
13991;SDS011;7070;53.586;9.692;2022-10-24T00:12:45;0.40;;;0.40;;
13991;SDS011;7070;53.586;9.692;2022-10-24T00:15:12;0.40;;;0.40;;
13991;SDS011;7070;53.586;9.692;2022-10-24T00:17:40;0.40;;;0.40;;
13991;SDS011;7070;53.586;9.692;2022-10-24T00:20:07;0.37;;;0.37;;
13991;SDS011;7070;53.586;9.692;2022-10-24T00:22:35;0.40;;;0.40;;
13991;SDS011;7070;53.586;9.692;2022-10-24T00:25:03;0.40;;;0.40;;
13991;SDS011;7070;53.586;9.692;2022-10-24T00:27:31;0.40;;;0.40;;
13991;SDS011;7070;53.586;9.692;2022-10-24T00:29:59;0.40;;;0.40;;
13991;SDS011;7070;53.586;9.692;2022-10-24T00:32:26;0.40;;;0.40;;
13991;SDS011;7070;53.586;9.692;2022-10-24T00:34:52;0.40;;;0.40;;
13991;SDS011;7070;53.586;9.692;2022-10-24T00:37:19;0.40;;;0.40;;
13991;SDS011;7070;53.586;9.692;2022-10-24T00:39:46;0.40;;;0.40;;
13991;SDS011;7070;53.586;9.692;2022-10-24T00:42:14;0.40;;;0.40;;
13991;SDS011;7070;53.586;9.692;2022-10-24T00:44:41;0.40;;;0.40;;
13991;SDS011;7070;53.586;9.692;2022-10-24T00:47:09;0.40;;;0.40;;
13991;SDS011;7070;53.586;9.692;2022-10-24T00:49:43;0.40;;;0.40;;
13991;SDS011;7070;53.586;9.692;2022-10-24T00:52:11;0.40;;;0.40;;
13991;SDS011;7070;53.586;9.692;2022-10-24T00:54:40;0.40;;;0.40;;
13991;SDS011;7070;53.586;9.692;2022-10-24T00:57:07;0.30;;;0.30;;
13991;SDS011;7070;53.586;9.692;2022-10-24T00:59:41;0.40;;;0.40;;
13991;SDS011;7070;53.586;9.692;2022-10-24T01:02:10;0.50;;;0.50;;
13991;SDS011;7070;53.586;9.692;2022-10-24T01:04:37;0.37;;;0.37;;
13991;SDS011;7070;53.586;9.692;2022-10-24T01:07:09;0.40;;;0.40;;
13991;SDS011;7070;53.586;9.692;2022-10-24T01:09:53;0.47;;;0.47;;
13991;SDS011;7070;53.586;9.692;2022-10-24T01:12:34;0.40;;;0.40;;
13991;SDS011;7070;53.586;9.692;2022-10-24T01:15:08;0.40;;;0.40;;
13991;SDS011;7070;53.586;9.692;2022-10-24T01:17:40;0.40;;;0.40;;
13991;SDS011;7070;53.586;9.692;2022-10-24T01:23:15;0.40;;;0.40;;
13991;SDS011;7070;53.586;9.692;2022-10-24T01:25:54;0.40;;;0.40;;
13991;SDS011;7070;53.586;9.692;2022-10-24T01:28:35;0.40;;;0.40;;
13991;SDS011;7070;53.586;9.692;2022-10-24T01:31:12;0.40;;;0.40;;
13991;SDS011;7070;53.586;9.692;2022-10-24T01:33:44;0.40;;;0.40;;
13991;SDS011;7070;53.586;9.692;2022-10-24T01:36:17;0.50;;;0.50;;
13991;SDS011;7070;53.586;9.692;2022-10-24T01:38:49;0.40;;;0.40;;
13991;SDS011;7070;53.586;9.692;2022-10-24T01:41:19;0.40;;;0.40;;
13991;SDS011;7070;53.586;9.692;2022-10-24T01:43:48;0.40;;;0.40;;
13991;SDS011;7070;53.586;9.692;2022-10-24T01:46:20;0.40;;;0.40;;
13991;SDS011;7070;53.586;9.692;2022-10-24T01:48:51;0.40;;;0.40;;
13991;SDS011;7070;53.586;9.692;2022-10-24T01:51:30;0.40;;;0.40;;
13991;SDS011;7070;53.586;9.692;2022-10-24T01:53:59;0.47;;;0.47;;
13991;SDS011;7070;53.586;9.692;2022-10-24T01:56:28;0.40;;;0.40;;
13991;SDS011;7070;53.586;9.692;2022-10-24T01:59:02;0.40;;;0.40;;
13991;SDS011;7070;53.586;9.692;2022-10-24T02:01:31;0.43;;;0.43;;
13991;SDS011;7070;53.586;9.692;2022-10-24T02:04:01;0.40;;;0.40;;
13991;SDS011;7070;53.586;9.692;2022-10-24T02:06:34;0.50;;;0.50;;
13991;SDS011;7070;53.586;9.692;2022-10-24T02:09:05;0.50;;;0.50;;
13991;SDS011;7070;53.586;9.692;2022-10-24T02:11:34;0.50;;;0.50;;
13991;SDS011;7070;53.586;9.692;2022-10-24T02:14:04;0.40;;;0.40;;
13991;SDS011;7070;53.586;9.692;2022-10-24T02:16:36;0.47;;;0.47;;
13991;SDS011;7070;53.586;9.692;2022-10-24T02:19:03;0.43;;;0.43;;
13991;SDS011;7070;53.586;9.692;2022-10-24T02:21:31;0.40;;;0.40;;
13991;SDS011;7070;53.586;9.692;2022-10-24T02:24:02;0.50;;;0.50;;
13991;SDS011;7070;53.586;9.692;2022-10-24T02:26:38;0.40;;;0.40;;
13991;SDS011;7070;53.586;9.692;2022-10-24T02:29:13;0.40;;;0.40;;
13991;SDS011;7070;53.586;9.692;2022-10-24T02:31:46;0.40;;;0.40;;
13991;SDS011;7070;53.586;9.692;2022-10-24T02:34:17;0.47;;;0.47;;
13991;SDS011;7070;53.586;9.692;2022-10-24T02:36:47;0.33;;;0.33;;
13991;SDS011;7070;53.586;9.692;2022-10-24T02:39:15;0.50;;;0.50;;
13991;SDS011;7070;53.586;9.692;2022-10-24T02:41:42;0.40;;;0.40;;
13991;SDS011;7070;53.586;9.692;2022-10-24T02:44:11;0.47;;;0.47;;
13991;SDS011;7070;53.586;9.692;2022-10-24T02:46:40;0.50;;;0.50;;
13991;SDS011;7070;53.586;9.692;2022-10-24T02:49:11;0.50;;;0.50;;
13991;SDS011;7070;53.586;9.692;2022-10-24T02:51:39;0.40;;;0.40;;
13991;SDS011;7070;53.586;9.692;2022-10-24T02:54:09;0.43;;;0.43;;
13991;SDS011;7070;53.586;9.692;2022-10-24T02:56:36;0.40;;;0.40;;
13991;SDS011;7070;53.586;9.692;2022-10-24T02:59:06;0.40;;;0.40;;
13991;SDS011;7070;53.586;9.692;2022-10-24T03:01:33;0.40;;;0.40;;
13991;SDS011;7070;53.586;9.692;2022-10-24T03:04:00;0.50;;;0.50;;
13991;SDS011;7070;53.586;9.692;2022-10-24T03:06:28;0.43;;;0.43;;
13991;SDS011;7070;53.586;9.692;2022-10-24T03:08:54;0.47;;;0.47;;
13991;SDS011;7070;53.586;9.692;2022-10-24T03:11:21;0.50;;;0.50;;
13991;SDS011;7070;53.586;9.692;2022-10-24T03:13:48;0.40;;;0.40;;
13991;SDS011;7070;53.586;9.692;2022-10-24T03:16:15;0.50;;;0.50;;
13991;SDS011;7070;53.586;9.692;2022-10-24T03:18:42;0.40;;;0.40;;
13991;SDS011;7070;53.586;9.692;2022-10-24T03:21:09;0.40;;;0.40;;
13991;SDS011;7070;53.586;9.692;2022-10-24T03:23:37;0.50;;;0.50;;
13991;SDS011;7070;53.586;9.692;2022-10-24T03:26:04;0.40;;;0.40;;
13991;SDS011;7070;53.586;9.692;2022-10-24T03:28:31;0.40;;;0.40;;
13991;SDS011;7070;53.586;9.692;2022-10-24T03:30:58;0.50;;;0.50;;
13991;SDS011;7070;53.586;9.692;2022-10-24T03:33:24;0.40;;;0.40;;
13991;SDS011;7070;53.586;9.692;2022-10-24T03:35:51;0.50;;;0.50;;
13991;SDS011;7070;53.586;9.692;2022-10-24T03:38:19;0.40;;;0.40;;
13991;SDS011;7070;53.586;9.692;2022-10-24T03:40:47;0.50;;;0.50;;
13991;SDS011;7070;53.586;9.692;2022-10-24T03:43:15;0.43;;;0.43;;
13991;SDS011;7070;53.586;9.692;2022-10-24T03:45:42;0.33;;;0.33;;
13991;SDS011;7070;53.586;9.692;2022-10-24T03:48:09;0.40;;;0.40;;
13991;SDS011;7070;53.586;9.692;2022-10-24T03:50:36;0.50;;;0.50;;
13991;SDS011;7070;53.586;9.692;2022-10-24T03:53:03;0.40;;;0.40;;
13991;SDS011;7070;53.586;9.692;2022-10-24T03:55:30;0.40;;;0.40;;
13991;SDS011;7070;53.586;9.692;2022-10-24T03:57:58;0.40;;;0.40;;
13991;SDS011;7070;53.586;9.692;2022-10-24T04:00:25;0.40;;;0.40;;
13991;SDS011;7070;53.586;9.692;2022-10-24T04:02:53;0.43;;;0.43;;
13991;SDS011;7070;53.586;9.692;2022-10-24T04:05:20;0.50;;;0.50;;
13991;SDS011;7070;53.586;9.692;2022-10-24T04:07:46;0.50;;;0.50;;
13991;SDS011;7070;53.586;9.692;2022-10-24T04:10:13;0.40;;;0.40;;
13991;SDS011;7070;53.586;9.692;2022-10-24T04:12:40;0.40;;;0.40;;
13991;SDS011;7070;53.586;9.692;2022-10-24T04:15:08;0.50;;;0.50;;
13991;SDS011;7070;53.586;9.692;2022-10-24T04:17:36;0.50;;;0.50;;
13991;SDS011;7070;53.586;9.692;2022-10-24T04:20:03;0.50;;;0.50;;
13991;SDS011;7070;53.586;9.692;2022-10-24T04:22:30;0.50;;;0.50;;
13991;SDS011;7070;53.586;9.692;2022-10-24T04:24:57;0.50;;;0.50;;
13991;SDS011;7070;53.586;9.692;2022-10-24T04:27:24;0.50;;;0.50;;
13991;SDS011;7070;53.586;9.692;2022-10-24T04:29:51;0.43;;;0.43;;
13991;SDS011;7070;53.586;9.692;2022-10-24T04:32:19;0.40;;;0.40;;
13991;SDS011;7070;53.586;9.692;2022-10-24T04:34:46;0.50;;;0.50;;
13991;SDS011;7070;53.586;9.692;2022-10-24T04:37:13;0.50;;;0.50;;
13991;SDS011;7070;53.586;9.692;2022-10-24T04:39:39;0.40;;;0.40;;
13991;SDS011;7070;53.586;9.692;2022-10-24T04:42:06;0.40;;;0.40;;
13991;SDS011;7070;53.586;9.692;2022-10-24T04:44:33;0.40;;;0.40;;
13991;SDS011;7070;53.586;9.692;2022-10-24T04:47:00;0.40;;;0.40;;
13991;SDS011;7070;53.586;9.692;2022-10-24T04:49:28;0.50;;;0.50;;
13991;SDS011;7070;53.586;9.692;2022-10-24T04:51:54;0.47;;;0.47;;
13991;SDS011;7070;53.586;9.692;2022-10-24T04:54:21;0.40;;;0.40;;
13991;SDS011;7070;53.586;9.692;2022-10-24T04:56:48;0.40;;;0.40;;
13991;SDS011;7070;53.586;9.692;2022-10-24T04:59:15;0.40;;;0.40;;
13991;SDS011;7070;53.586;9.692;2022-10-24T05:01:42;0.50;;;0.50;;
13991;SDS011;7070;53.586;9.692;2022-10-24T05:04:08;0.50;;;0.50;;
13991;SDS011;7070;53.586;9.692;2022-10-24T05:06:37;0.50;;;0.50;;
13991;SDS011;7070;53.586;9.692;2022-10-24T05:09:04;0.40;;;0.40;;
13991;SDS011;7070;53.586;9.692;2022-10-24T05:11:31;0.50;;;0.50;;
13991;SDS011;7070;53.586;9.692;2022-10-24T05:13:59;0.40;;;0.40;;
13991;SDS011;7070;53.586;9.692;2022-10-24T05:16:26;0.47;;;0.47;;
13991;SDS011;7070;53.586;9.692;2022-10-24T05:18:53;0.50;;;0.50;;
13991;SDS011;7070;53.586;9.692;2022-10-24T05:21:19;0.50;;;0.50;;
13991;SDS011;7070;53.586;9.692;2022-10-24T05:23:47;0.50;;;0.50;;
13991;SDS011;7070;53.586;9.692;2022-10-24T05:26:14;0.50;;;0.50;;
13991;SDS011;7070;53.586;9.692;2022-10-24T05:28:41;0.40;;;0.40;;
13991;SDS011;7070;53.586;9.692;2022-10-24T05:31:08;0.40;;;0.40;;
13991;SDS011;7070;53.586;9.692;2022-10-24T05:33:35;0.40;;;0.40;;
13991;SDS011;7070;53.586;9.692;2022-10-24T05:36:01;0.50;;;0.50;;
13991;SDS011;7070;53.586;9.692;2022-10-24T05:38:28;0.50;;;0.50;;
13991;SDS011;7070;53.586;9.692;2022-10-24T05:40:56;0.50;;;0.50;;
13991;SDS011;7070;53.586;9.692;2022-10-24T05:43:23;0.50;;;0.50;;
13991;SDS011;7070;53.586;9.692;2022-10-24T05:45:50;0.50;;;0.50;;
13991;SDS011;7070;53.586;9.692;2022-10-24T05:48:17;0.50;;;0.50;;
13991;SDS011;7070;53.586;9.692;2022-10-24T05:50:43;0.50;;;0.50;;
13991;SDS011;7070;53.586;9.692;2022-10-24T05:53:10;0.50;;;0.50;;
13991;SDS011;7070;53.586;9.692;2022-10-24T05:55:38;0.50;;;0.50;;
13991;SDS011;7070;53.586;9.692;2022-10-24T05:58:06;0.50;;;0.50;;
13991;SDS011;7070;53.586;9.692;2022-10-24T06:00:32;0.50;;;0.50;;
13991;SDS011;7070;53.586;9.692;2022-10-24T06:02:59;0.50;;;0.50;;
13991;SDS011;7070;53.586;9.692;2022-10-24T06:05:26;0.47;;;0.47;;
13991;SDS011;7070;53.586;9.692;2022-10-24T06:07:53;0.40;;;0.40;;
13991;SDS011;7070;53.586;9.692;2022-10-24T06:10:20;0.50;;;0.50;;
13991;SDS011;7070;53.586;9.692;2022-10-24T06:12:47;0.50;;;0.50;;
13991;SDS011;7070;53.586;9.692;2022-10-24T06:15:15;0.40;;;0.40;;
13991;SDS011;7070;53.586;9.692;2022-10-24T06:17:41;0.50;;;0.50;;
13991;SDS011;7070;53.586;9.692;2022-10-24T06:20:09;0.50;;;0.50;;
13991;SDS011;7070;53.586;9.692;2022-10-24T06:22:36;0.50;;;0.50;;
13991;SDS011;7070;53.586;9.692;2022-10-24T06:25:03;0.50;;;0.50;;
13991;SDS011;7070;53.586;9.692;2022-10-24T06:27:30;0.47;;;0.47;;
13991;SDS011;7070;53.586;9.692;2022-10-24T06:29:57;0.50;;;0.50;;
13991;SDS011;7070;53.586;9.692;2022-10-24T06:32:25;0.43;;;0.43;;
13991;SDS011;7070;53.586;9.692;2022-10-24T06:34:51;0.40;;;0.40;;
13991;SDS011;7070;53.586;9.692;2022-10-24T06:37:18;0.50;;;0.50;;
13991;SDS011;7070;53.586;9.692;2022-10-24T06:39:45;0.40;;;0.40;;
13991;SDS011;7070;53.586;9.692;2022-10-24T06:42:12;0.40;;;0.40;;
13991;SDS011;7070;53.586;9.692;2022-10-24T06:44:39;0.47;;;0.47;;
13991;SDS011;7070;53.586;9.692;2022-10-24T06:47:05;0.40;;;0.40;;
13991;SDS011;7070;53.586;9.692;2022-10-24T06:49:33;0.50;;;0.50;;
13991;SDS011;7070;53.586;9.692;2022-10-24T06:52:00;0.40;;;0.40;;
13991;SDS011;7070;53.586;9.692;2022-10-24T06:54:27;0.40;;;0.40;;
13991;SDS011;7070;53.586;9.692;2022-10-24T06:56:55;0.40;;;0.40;;
13991;SDS011;7070;53.586;9.692;2022-10-24T06:59:21;0.43;;;0.43;;
13991;SDS011;7070;53.586;9.692;2022-10-24T07:01:48;0.40;;;0.40;;
13991;SDS011;7070;53.586;9.692;2022-10-24T07:04:15;0.50;;;0.50;;
13991;SDS011;7070;53.586;9.692;2022-10-24T07:06:43;0.50;;;0.50;;
13991;SDS011;7070;53.586;9.692;2022-10-24T07:09:10;0.47;;;0.47;;
13991;SDS011;7070;53.586;9.692;2022-10-24T07:11:37;0.40;;;0.40;;
13991;SDS011;7070;53.586;9.692;2022-10-24T07:14:04;0.40;;;0.40;;
13991;SDS011;7070;53.586;9.692;2022-10-24T07:16:33;0.50;;;0.50;;
13991;SDS011;7070;53.586;9.692;2022-10-24T07:19:00;0.40;;;0.40;;
13991;SDS011;7070;53.586;9.692;2022-10-24T07:21:27;0.40;;;0.40;;
13991;SDS011;7070;53.586;9.692;2022-10-24T07:23:57;0.40;;;0.40;;
13991;SDS011;7070;53.586;9.692;2022-10-24T07:26:25;0.50;;;0.50;;
13991;SDS011;7070;53.586;9.692;2022-10-24T07:28:53;0.50;;;0.50;;
13991;SDS011;7070;53.586;9.692;2022-10-24T07:31:23;0.50;;;0.50;;
13991;SDS011;7070;53.586;9.692;2022-10-24T07:33:52;0.50;;;0.50;;
13991;SDS011;7070;53.586;9.692;2022-10-24T07:36:21;0.50;;;0.50;;
13991;SDS011;7070;53.586;9.692;2022-10-24T07:38:51;0.50;;;0.50;;
13991;SDS011;7070;53.586;9.692;2022-10-24T07:41:22;0.47;;;0.47;;
13991;SDS011;7070;53.586;9.692;2022-10-24T07:43:49;0.40;;;0.40;;
13991;SDS011;7070;53.586;9.692;2022-10-24T07:46:17;0.43;;;0.43;;
13991;SDS011;7070;53.586;9.692;2022-10-24T07:48:44;0.50;;;0.50;;
13991;SDS011;7070;53.586;9.692;2022-10-24T07:51:13;0.50;;;0.50;;
13991;SDS011;7070;53.586;9.692;2022-10-24T07:53:40;0.50;;;0.50;;
13991;SDS011;7070;53.586;9.692;2022-10-24T07:56:07;0.40;;;0.40;;
13991;SDS011;7070;53.586;9.692;2022-10-24T07:58:38;0.40;;;0.40;;
13991;SDS011;7070;53.586;9.692;2022-10-24T08:01:07;0.47;;;0.47;;
13991;SDS011;7070;53.586;9.692;2022-10-24T08:03:35;0.50;;;0.50;;
13991;SDS011;7070;53.586;9.692;2022-10-24T08:06:03;0.50;;;0.50;;
13991;SDS011;7070;53.586;9.692;2022-10-24T08:08:30;0.47;;;0.47;;
13991;SDS011;7070;53.586;9.692;2022-10-24T08:10:57;0.33;;;0.33;;
13991;SDS011;7070;53.586;9.692;2022-10-24T08:13:24;0.40;;;0.40;;
13991;SDS011;7070;53.586;9.692;2022-10-24T08:15:52;0.50;;;0.50;;
13991;SDS011;7070;53.586;9.692;2022-10-24T08:18:20;0.40;;;0.40;;
13991;SDS011;7070;53.586;9.692;2022-10-24T08:20:54;0.40;;;0.40;;
13991;SDS011;7070;53.586;9.692;2022-10-24T08:23:22;0.40;;;0.40;;
13991;SDS011;7070;53.586;9.692;2022-10-24T08:25:49;0.50;;;0.50;;
13991;SDS011;7070;53.586;9.692;2022-10-24T08:28:16;0.40;;;0.40;;
13991;SDS011;7070;53.586;9.692;2022-10-24T08:30:42;0.50;;;0.50;;
13991;SDS011;7070;53.586;9.692;2022-10-24T08:33:10;0.40;;;0.40;;
13991;SDS011;7070;53.586;9.692;2022-10-24T08:35:37;0.40;;;0.40;;
13991;SDS011;7070;53.586;9.692;2022-10-24T08:38:04;0.40;;;0.40;;
13991;SDS011;7070;53.586;9.692;2022-10-24T08:40:31;0.37;;;0.37;;
13991;SDS011;7070;53.586;9.692;2022-10-24T08:42:57;0.40;;;0.40;;
13991;SDS011;7070;53.586;9.692;2022-10-24T08:45:25;0.40;;;0.40;;
13991;SDS011;7070;53.586;9.692;2022-10-24T08:48:01;0.40;;;0.40;;
13991;SDS011;7070;53.586;9.692;2022-10-24T08:50:33;0.40;;;0.40;;
13991;SDS011;7070;53.586;9.692;2022-10-24T08:53:03;0.40;;;0.40;;
13991;SDS011;7070;53.586;9.692;2022-10-24T08:55:36;0.40;;;0.40;;
13991;SDS011;7070;53.586;9.692;2022-10-24T08:58:04;0.40;;;0.40;;
13991;SDS011;7070;53.586;9.692;2022-10-24T09:00:32;0.40;;;0.40;;
13991;SDS011;7070;53.586;9.692;2022-10-24T09:03:05;0.30;;;0.30;;
13991;SDS011;7070;53.586;9.692;2022-10-24T09:05:41;0.40;;;0.40;;
13991;SDS011;7070;53.586;9.692;2022-10-24T09:08:15;0.40;;;0.40;;
13991;SDS011;7070;53.586;9.692;2022-10-24T09:10:48;0.40;;;0.40;;
13991;SDS011;7070;53.586;9.692;2022-10-24T09:13:20;0.37;;;0.37;;
13991;SDS011;7070;53.586;9.692;2022-10-24T09:15:48;0.40;;;0.40;;
13991;SDS011;7070;53.586;9.692;2022-10-24T09:18:17;0.40;;;0.40;;
13991;SDS011;7070;53.586;9.692;2022-10-24T09:20:47;0.40;;;0.40;;
13991;SDS011;7070;53.586;9.692;2022-10-24T09:23:16;0.40;;;0.40;;
13991;SDS011;7070;53.586;9.692;2022-10-24T09:25:44;0.40;;;0.40;;
13991;SDS011;7070;53.586;9.692;2022-10-24T09:28:14;0.30;;;0.30;;
13991;SDS011;7070;53.586;9.692;2022-10-24T09:30:42;0.40;;;0.40;;
13991;SDS011;7070;53.586;9.692;2022-10-24T09:33:12;0.30;;;0.30;;
13991;SDS011;7070;53.586;9.692;2022-10-24T09:35:49;0.37;;;0.37;;
13991;SDS011;7070;53.586;9.692;2022-10-24T09:38:24;0.30;;;0.30;;
13991;SDS011;7070;53.586;9.692;2022-10-24T09:40:53;0.40;;;0.40;;
13991;SDS011;7070;53.586;9.692;2022-10-24T09:43:23;0.40;;;0.40;;
13991;SDS011;7070;53.586;9.692;2022-10-24T09:45:59;0.40;;;0.40;;
13991;SDS011;7070;53.586;9.692;2022-10-24T09:48:29;0.40;;;0.40;;
13991;SDS011;7070;53.586;9.692;2022-10-24T09:51:20;0.30;;;0.30;;
13991;SDS011;7070;53.586;9.692;2022-10-24T09:54:05;0.40;;;0.40;;
13991;SDS011;7070;53.586;9.692;2022-10-24T09:56:48;0.30;;;0.30;;
13991;SDS011;7070;53.586;9.692;2022-10-24T09:59:29;0.40;;;0.40;;
13991;SDS011;7070;53.586;9.692;2022-10-24T10:02:13;0.40;;;0.40;;
13991;SDS011;7070;53.586;9.692;2022-10-24T10:04:44;0.30;;;0.30;;
13991;SDS011;7070;53.586;9.692;2022-10-24T10:07:13;0.30;;;0.30;;
13991;SDS011;7070;53.586;9.692;2022-10-24T10:09:46;0.30;;;0.30;;
13991;SDS011;7070;53.586;9.692;2022-10-24T10:12:25;0.30;;;0.30;;
13991;SDS011;7070;53.586;9.692;2022-10-24T10:14:56;0.40;;;0.40;;
13991;SDS011;7070;53.586;9.692;2022-10-24T10:17:25;0.40;;;0.40;;
13991;SDS011;7070;53.586;9.692;2022-10-24T10:19:55;0.30;;;0.30;;
13991;SDS011;7070;53.586;9.692;2022-10-24T10:22:24;0.20;;;0.20;;
13991;SDS011;7070;53.586;9.692;2022-10-24T10:24:53;0.40;;;0.40;;
13991;SDS011;7070;53.586;9.692;2022-10-24T10:27:24;0.40;;;0.40;;
13991;SDS011;7070;53.586;9.692;2022-10-24T10:30:14;0.33;;;0.33;;
13991;SDS011;7070;53.586;9.692;2022-10-24T10:32:44;0.30;;;0.30;;
13991;SDS011;7070;53.586;9.692;2022-10-24T10:35:18;0.40;;;0.40;;
13991;SDS011;7070;53.586;9.692;2022-10-24T10:37:48;0.30;;;0.30;;
13991;SDS011;7070;53.586;9.692;2022-10-24T10:40:25;0.30;;;0.30;;
13991;SDS011;7070;53.586;9.692;2022-10-24T10:42:59;0.37;;;0.37;;
13991;SDS011;7070;53.586;9.692;2022-10-24T10:45:44;0.30;;;0.30;;
13991;SDS011;7070;53.586;9.692;2022-10-24T10:48:16;0.33;;;0.33;;
13991;SDS011;7070;53.586;9.692;2022-10-24T10:51:01;0.30;;;0.30;;
13991;SDS011;7070;53.586;9.692;2022-10-24T10:53:36;0.20;;;0.20;;
13991;SDS011;7070;53.586;9.692;2022-10-24T10:56:11;0.30;;;0.30;;
13991;SDS011;7070;53.586;9.692;2022-10-24T10:58:47;0.30;;;0.30;;
13991;SDS011;7070;53.586;9.692;2022-10-24T11:01:25;0.30;;;0.30;;
13991;SDS011;7070;53.586;9.692;2022-10-24T11:04:06;0.30;;;0.30;;
13991;SDS011;7070;53.586;9.692;2022-10-24T11:06:43;0.30;;;0.30;;
13991;SDS011;7070;53.586;9.692;2022-10-24T11:09:25;0.30;;;0.30;;
13991;SDS011;7070;53.586;9.692;2022-10-24T11:12:00;0.30;;;0.30;;
13991;SDS011;7070;53.586;9.692;2022-10-24T11:14:32;0.30;;;0.30;;
13991;SDS011;7070;53.586;9.692;2022-10-24T11:17:04;0.30;;;0.30;;
13991;SDS011;7070;53.586;9.692;2022-10-24T11:19:41;0.30;;;0.30;;
13991;SDS011;7070;53.586;9.692;2022-10-24T11:22:14;0.20;;;0.20;;
13991;SDS011;7070;53.586;9.692;2022-10-24T11:24:49;0.30;;;0.30;;
13991;SDS011;7070;53.586;9.692;2022-10-24T11:27:23;0.20;;;0.20;;
13991;SDS011;7070;53.586;9.692;2022-10-24T11:29:54;0.30;;;0.30;;
13991;SDS011;7070;53.586;9.692;2022-10-24T11:32:26;0.30;;;0.30;;
13991;SDS011;7070;53.586;9.692;2022-10-24T11:34:58;0.30;;;0.30;;
13991;SDS011;7070;53.586;9.692;2022-10-24T11:37:31;0.30;;;0.30;;
13991;SDS011;7070;53.586;9.692;2022-10-24T11:40:04;0.30;;;0.30;;
13991;SDS011;7070;53.586;9.692;2022-10-24T11:42:36;0.30;;;0.30;;
13991;SDS011;7070;53.586;9.692;2022-10-24T11:45:09;0.20;;;0.20;;
13991;SDS011;7070;53.586;9.692;2022-10-24T11:47:40;0.20;;;0.20;;
13991;SDS011;7070;53.586;9.692;2022-10-24T11:50:14;0.20;;;0.20;;
13991;SDS011;7070;53.586;9.692;2022-10-24T11:52:47;0.30;;;0.30;;
13991;SDS011;7070;53.586;9.692;2022-10-24T11:55:20;0.23;;;0.23;;
13991;SDS011;7070;53.586;9.692;2022-10-24T11:57:56;0.30;;;0.30;;
13991;SDS011;7070;53.586;9.692;2022-10-24T12:00:24;0.30;;;0.30;;
13991;SDS011;7070;53.586;9.692;2022-10-24T12:03:17;0.30;;;0.30;;
13991;SDS011;7070;53.586;9.692;2022-10-24T12:06:17;0.30;;;0.30;;
13991;SDS011;7070;53.586;9.692;2022-10-24T12:09:00;0.30;;;0.30;;
13991;SDS011;7070;53.586;9.692;2022-10-24T12:12:04;0.30;;;0.30;;
13991;SDS011;7070;53.586;9.692;2022-10-24T12:14:43;0.30;;;0.30;;
13991;SDS011;7070;53.586;9.692;2022-10-24T12:17:39;0.20;;;0.20;;
13991;SDS011;7070;53.586;9.692;2022-10-24T12:20:19;0.30;;;0.30;;
13991;SDS011;7070;53.586;9.692;2022-10-24T12:22:47;0.30;;;0.30;;
13991;SDS011;7070;53.586;9.692;2022-10-24T12:25:17;0.30;;;0.30;;
13991;SDS011;7070;53.586;9.692;2022-10-24T12:27:53;0.30;;;0.30;;
13991;SDS011;7070;53.586;9.692;2022-10-24T12:30:22;0.30;;;0.30;;
13991;SDS011;7070;53.586;9.692;2022-10-24T12:32:51;0.30;;;0.30;;
13991;SDS011;7070;53.586;9.692;2022-10-24T12:35:35;0.30;;;0.30;;
13991;SDS011;7070;53.586;9.692;2022-10-24T12:41:36;0.27;;;0.27;;
13991;SDS011;7070;53.586;9.692;2022-10-24T12:44:34;0.40;;;0.40;;
13991;SDS011;7070;53.586;9.692;2022-10-24T12:47:24;0.30;;;0.30;;
13991;SDS011;7070;53.586;9.692;2022-10-24T12:49:58;0.30;;;0.30;;
13991;SDS011;7070;53.586;9.692;2022-10-24T12:53:04;0.30;;;0.30;;
13991;SDS011;7070;53.586;9.692;2022-10-24T12:58:44;0.30;;;0.30;;
13991;SDS011;7070;53.586;9.692;2022-10-24T13:01:24;0.27;;;0.27;;
13991;SDS011;7070;53.586;9.692;2022-10-24T13:04:01;0.23;;;0.23;;
13991;SDS011;7070;53.586;9.692;2022-10-24T13:06:45;0.20;;;0.20;;
13991;SDS011;7070;53.586;9.692;2022-10-24T13:09:35;0.30;;;0.30;;
13991;SDS011;7070;53.586;9.692;2022-10-24T13:12:18;0.40;;;0.40;;
13991;SDS011;7070;53.586;9.692;2022-10-24T13:15:02;0.30;;;0.30;;
13991;SDS011;7070;53.586;9.692;2022-10-24T13:17:48;0.30;;;0.30;;
13991;SDS011;7070;53.586;9.692;2022-10-24T13:20:24;0.30;;;0.30;;
13991;SDS011;7070;53.586;9.692;2022-10-24T13:22:58;0.30;;;0.30;;
13991;SDS011;7070;53.586;9.692;2022-10-24T13:25:28;0.30;;;0.30;;
13991;SDS011;7070;53.586;9.692;2022-10-24T13:34:10;0.30;;;0.30;;
13991;SDS011;7070;53.586;9.692;2022-10-24T13:36:47;0.30;;;0.30;;
13991;SDS011;7070;53.586;9.692;2022-10-24T13:39:16;0.40;;;0.40;;
13991;SDS011;7070;53.586;9.692;2022-10-24T13:41:47;0.20;;;0.20;;
13991;SDS011;7070;53.586;9.692;2022-10-24T13:44:22;0.30;;;0.30;;
13991;SDS011;7070;53.586;9.692;2022-10-24T13:46:54;0.30;;;0.30;;
13991;SDS011;7070;53.586;9.692;2022-10-24T13:49:38;0.30;;;0.30;;
13991;SDS011;7070;53.586;9.692;2022-10-24T13:52:14;0.40;;;0.40;;
13991;SDS011;7070;53.586;9.692;2022-10-24T13:54:48;0.30;;;0.30;;
13991;SDS011;7070;53.586;9.692;2022-10-24T13:57:25;0.30;;;0.30;;
13991;SDS011;7070;53.586;9.692;2022-10-24T13:59:58;0.40;;;0.40;;
13991;SDS011;7070;53.586;9.692;2022-10-24T14:02:28;0.30;;;0.30;;
13991;SDS011;7070;53.586;9.692;2022-10-24T14:07:50;0.30;;;0.30;;
13991;SDS011;7070;53.586;9.692;2022-10-24T14:10:17;0.30;;;0.30;;
13991;SDS011;7070;53.586;9.692;2022-10-24T14:12:46;0.37;;;0.37;;
13991;SDS011;7070;53.586;9.692;2022-10-24T14:15:16;0.40;;;0.40;;
13991;SDS011;7070;53.586;9.692;2022-10-24T14:17:51;0.30;;;0.30;;
13991;SDS011;7070;53.586;9.692;2022-10-24T14:20:23;0.30;;;0.30;;
13991;SDS011;7070;53.586;9.692;2022-10-24T14:22:51;0.30;;;0.30;;
13991;SDS011;7070;53.586;9.692;2022-10-24T14:25:22;0.30;;;0.30;;
13991;SDS011;7070;53.586;9.692;2022-10-24T14:27:51;0.30;;;0.30;;
13991;SDS011;7070;53.586;9.692;2022-10-24T14:30:20;0.40;;;0.40;;
13991;SDS011;7070;53.586;9.692;2022-10-24T14:33:01;0.30;;;0.30;;
13991;SDS011;7070;53.586;9.692;2022-10-24T14:35:43;0.30;;;0.30;;
13991;SDS011;7070;53.586;9.692;2022-10-24T14:38:11;0.30;;;0.30;;
13991;SDS011;7070;53.586;9.692;2022-10-24T14:40:40;0.30;;;0.30;;
13991;SDS011;7070;53.586;9.692;2022-10-24T14:43:11;0.30;;;0.30;;
13991;SDS011;7070;53.586;9.692;2022-10-24T14:45:41;0.30;;;0.30;;
13991;SDS011;7070;53.586;9.692;2022-10-24T14:48:43;0.30;;;0.30;;
13991;SDS011;7070;53.586;9.692;2022-10-24T14:51:15;0.30;;;0.30;;
13991;SDS011;7070;53.586;9.692;2022-10-24T14:53:48;0.30;;;0.30;;
13991;SDS011;7070;53.586;9.692;2022-10-24T14:56:16;0.37;;;0.37;;
13991;SDS011;7070;53.586;9.692;2022-10-24T14:58:49;0.30;;;0.30;;
13991;SDS011;7070;53.586;9.692;2022-10-24T15:01:17;0.30;;;0.30;;
13991;SDS011;7070;53.586;9.692;2022-10-24T15:03:49;0.20;;;0.20;;
13991;SDS011;7070;53.586;9.692;2022-10-24T15:06:20;0.30;;;0.30;;
13991;SDS011;7070;53.586;9.692;2022-10-24T15:08:59;0.30;;;0.30;;
13991;SDS011;7070;53.586;9.692;2022-10-24T15:11:28;0.40;;;0.40;;
13991;SDS011;7070;53.586;9.692;2022-10-24T15:13:56;0.30;;;0.30;;
13991;SDS011;7070;53.586;9.692;2022-10-24T15:16:27;0.30;;;0.30;;
13991;SDS011;7070;53.586;9.692;2022-10-24T15:18:57;0.30;;;0.30;;
13991;SDS011;7070;53.586;9.692;2022-10-24T15:21:26;0.30;;;0.30;;
13991;SDS011;7070;53.586;9.692;2022-10-24T15:24:00;0.40;;;0.40;;
13991;SDS011;7070;53.586;9.692;2022-10-24T15:26:31;0.40;;;0.40;;
13991;SDS011;7070;53.586;9.692;2022-10-24T15:29:04;0.30;;;0.30;;
13991;SDS011;7070;53.586;9.692;2022-10-24T15:31:34;0.30;;;0.30;;
13991;SDS011;7070;53.586;9.692;2022-10-24T15:34:02;0.30;;;0.30;;
13991;SDS011;7070;53.586;9.692;2022-10-24T15:36:31;0.30;;;0.30;;
13991;SDS011;7070;53.586;9.692;2022-10-24T15:39:00;0.30;;;0.30;;
13991;SDS011;7070;53.586;9.692;2022-10-24T15:41:29;0.30;;;0.30;;